createdAt,value
2022-10-13T00:00:57.738Z,22.67
2022-10-13T00:03:01.714Z,19.47
2022-10-13T00:05:04.837Z,19.63
2022-10-13T00:07:08.918Z,18.57
2022-10-13T00:09:11.718Z,19.17
2022-10-13T00:11:16.896Z,19.53
2022-10-13T00:13:20.218Z,19.20
2022-10-13T00:15:25.842Z,20.13
2022-10-13T00:17:28.492Z,19.03
2022-10-13T00:19:31.721Z,21.27
2022-10-13T00:21:34.422Z,21.33
2022-10-13T00:23:38.821Z,22.17
2022-10-13T00:25:43.266Z,20.17
2022-10-13T00:27:46.042Z,20.33
2022-10-13T00:29:48.810Z,19.03
2022-10-13T00:31:51.608Z,20.90
2022-10-13T00:33:54.758Z,18.10
2022-10-13T00:35:57.590Z,24.20
2022-10-13T00:38:00.381Z,18.43
2022-10-13T00:40:09.414Z,18.40
2022-10-13T00:42:13.651Z,16.30
2022-10-13T00:44:54.889Z,17.47
2022-10-13T00:46:57.729Z,21.53
2022-10-13T00:49:03.247Z,19.93
2022-10-13T00:51:06.711Z,23.27
2022-10-13T00:53:11.635Z,21.43
2022-10-13T00:55:19.067Z,21.63
2022-10-13T00:57:22.065Z,19.80
2022-10-13T00:59:28.933Z,21.97
2022-10-13T01:01:32.651Z,18.93
2022-10-13T01:03:36.253Z,22.27
2022-10-13T01:05:40.685Z,20.63
2022-10-13T01:07:44.696Z,21.67
2022-10-13T01:09:47.416Z,19.53
2022-10-13T01:12:05.641Z,20.20
2022-10-13T01:14:15.306Z,22.07
2022-10-13T01:16:29.262Z,23.73
2022-10-13T01:18:40.351Z,20.93
2022-10-13T01:21:11.207Z,25.37
2022-10-13T01:23:31.563Z,20.30
2022-10-13T01:25:57.447Z,22.30
2022-10-13T01:28:23.013Z,20.93
2022-10-13T01:30:27.285Z,22.80
2022-10-13T01:32:34.395Z,21.47
2022-10-13T01:34:45.119Z,24.37
2022-10-13T01:36:58.906Z,25.10
2022-10-13T01:39:08.601Z,24.87
2022-10-13T01:41:18.246Z,21.77
2022-10-13T01:43:24.626Z,20.53
2022-10-13T01:45:33.484Z,23.73
2022-10-13T01:47:37.549Z,24.93
2022-10-13T01:49:41.062Z,24.13
2022-10-13T01:51:45.549Z,23.23
2022-10-13T01:53:49.262Z,26.87
2022-10-13T01:55:53.528Z,26.93
2022-10-13T01:57:56.365Z,24.30
2022-10-13T01:59:59.941Z,25.47
2022-10-13T02:02:13.548Z,23.73
2022-10-13T02:04:27.105Z,25.93
2022-10-13T02:06:33.993Z,21.50
2022-10-13T02:08:41.339Z,25.63
2022-10-13T02:10:52.346Z,27.23
2022-10-13T02:13:00.764Z,23.77
2022-10-13T02:15:05.788Z,25.00
2022-10-13T02:17:11.305Z,27.00
2022-10-13T02:19:18.196Z,23.43
2022-10-13T02:21:20.944Z,21.73
2022-10-13T02:23:25.587Z,22.52
2022-10-13T02:25:29.429Z,24.83
2022-10-13T02:27:34.576Z,27.20
2022-10-13T02:29:50.179Z,28.08
2022-10-13T02:31:54.710Z,23.37
2022-10-13T02:33:58.830Z,23.03
2022-10-13T02:36:01.561Z,25.20
2022-10-13T02:38:04.490Z,26.83
2022-10-13T02:40:08.446Z,24.33
2022-10-13T02:42:11.381Z,24.50
2022-10-13T02:44:14.082Z,26.67
2022-10-13T02:46:16.996Z,25.60
2022-10-13T02:48:20.207Z,22.80
2022-10-13T02:50:24.387Z,24.40
2022-10-13T02:52:27.288Z,22.93
2022-10-13T02:54:30.082Z,24.90
2022-10-13T02:56:32.891Z,23.83
2022-10-13T02:58:35.655Z,24.77
2022-10-13T03:00:39.659Z,21.70
2022-10-13T03:02:42.718Z,19.57
2022-10-13T03:04:45.792Z,23.95
2022-10-13T03:06:49.910Z,22.10
2022-10-13T03:08:52.637Z,23.85
2022-10-13T03:10:57.441Z,19.45
2022-10-13T03:13:00.480Z,21.00
2022-10-13T03:15:03.257Z,25.58
2022-10-13T03:17:11.059Z,23.58
2022-10-13T03:19:16.011Z,21.73
2022-10-13T03:21:22.542Z,22.88
2022-10-13T03:23:27.196Z,24.42
2022-10-13T03:25:30.027Z,24.98
2022-10-13T03:27:33.005Z,23.73
2022-10-13T03:29:35.808Z,21.92
2022-10-13T03:31:38.576Z,24.73
2022-10-13T03:33:41.887Z,25.88
2022-10-13T03:35:44.655Z,25.38
2022-10-13T03:37:47.511Z,26.13
2022-10-13T03:39:51.644Z,23.85
2022-10-13T03:41:54.461Z,22.00
2022-10-13T03:43:57.192Z,24.35
2022-10-13T03:46:01.661Z,27.08
2022-10-13T03:48:04.669Z,26.58
2022-10-13T03:50:08.577Z,25.85
2022-10-13T03:52:11.480Z,21.95
2022-10-13T03:54:14.704Z,23.13
2022-10-13T03:56:26.267Z,23.08
2022-10-13T03:58:29.292Z,22.75
2022-10-13T04:00:32.011Z,26.27
2022-10-13T04:02:35.257Z,21.35
2022-10-13T04:04:39.095Z,23.77
2022-10-13T04:06:41.865Z,24.10
2022-10-13T04:08:45.026Z,23.27
2022-10-13T04:10:47.789Z,22.23
2022-10-13T04:12:51.854Z,23.90
2022-10-13T04:14:56.213Z,20.50
2022-10-13T04:16:58.904Z,20.67
2022-10-13T04:19:04.049Z,24.88
2022-10-13T04:21:10.154Z,21.15
2022-10-13T04:23:12.861Z,20.60
2022-10-13T04:25:24.156Z,22.50
2022-10-13T04:27:27.008Z,17.48
2022-10-13T04:29:31.679Z,21.85
2022-10-13T04:31:34.923Z,22.20
2022-10-13T04:33:37.651Z,22.20
2022-10-13T04:35:41.437Z,26.25
2022-10-13T04:37:45.193Z,27.33
2022-10-13T04:39:48.316Z,21.33
2022-10-13T04:41:51.073Z,21.48
2022-10-13T04:43:54.778Z,24.27
2022-10-13T04:46:02.935Z,23.75
2022-10-13T04:48:05.940Z,19.95
2022-10-13T04:50:09.783Z,21.20
2022-10-13T04:52:12.555Z,20.20
2022-10-13T04:54:15.334Z,22.23
2022-10-13T04:56:19.222Z,20.73
2022-10-13T04:58:22.176Z,23.90
2022-10-13T05:00:24.939Z,18.83
2022-10-13T05:02:29.186Z,17.05
2022-10-13T05:04:31.837Z,19.60
2022-10-13T05:06:48.565Z,20.25
2022-10-13T05:08:59.623Z,18.92
2022-10-13T05:11:03.945Z,20.00
2022-10-13T05:13:09.490Z,17.95
2022-10-13T05:15:12.489Z,26.10
2022-10-13T05:17:15.548Z,21.25
2022-10-13T05:19:20.217Z,20.27
2022-10-13T05:21:27.087Z,23.60
2022-10-13T05:23:29.735Z,20.08
2022-10-13T05:25:33.974Z,22.00
2022-10-13T05:27:36.924Z,22.90
2022-10-13T05:29:42.301Z,24.83
2022-10-13T05:31:44.994Z,21.55
2022-10-13T05:33:48.994Z,25.40
2022-10-13T05:36:06.238Z,25.63
2022-10-13T05:38:12.032Z,21.63
2022-10-13T05:40:15.339Z,22.15
2022-10-13T05:42:18.367Z,20.92
2022-10-13T05:44:22.052Z,21.52
2022-10-13T05:46:31.245Z,23.38
2022-10-13T05:48:33.884Z,23.67
2022-10-13T05:50:37.280Z,23.77
2022-10-13T05:52:42.975Z,23.13
2022-10-13T05:54:49.292Z,26.02
2022-10-13T05:56:57.986Z,22.73
2022-10-13T05:59:06.878Z,20.60
2022-10-13T06:01:12.958Z,23.00
2022-10-13T06:03:18.771Z,22.35
2022-10-13T06:05:23.866Z,21.33
2022-10-13T06:07:30.043Z,18.65
2022-10-13T06:09:37.736Z,19.33
2022-10-13T06:11:40.472Z,21.30
2022-10-13T06:13:43.215Z,20.38
2022-10-13T06:15:45.933Z,20.57
2022-10-13T06:17:48.671Z,21.00
2022-10-13T06:19:51.455Z,20.73
2022-10-13T06:21:54.315Z,19.98
2022-10-13T06:23:57.187Z,19.15
2022-10-13T06:26:01.234Z,17.77
2022-10-13T06:28:04.299Z,16.60
2022-10-13T06:30:08.303Z,18.73
2022-10-13T06:32:12.861Z,17.83
2022-10-13T06:34:15.719Z,18.10
2022-10-13T06:36:20.551Z,19.77
2022-10-13T06:38:23.295Z,19.38
2022-10-13T06:40:26.138Z,18.03
2022-10-13T06:42:31.760Z,21.93
2022-10-13T06:44:46.308Z,16.63
2022-10-13T06:46:49.129Z,21.33
2022-10-13T06:48:52.249Z,20.57
2022-10-13T06:50:56.722Z,19.97
2022-10-13T06:52:59.461Z,19.83
2022-10-13T06:55:02.145Z,19.60
2022-10-13T06:57:06.907Z,18.87
2022-10-13T06:59:11.817Z,16.50
2022-10-13T07:01:15.379Z,23.27
2022-10-13T07:03:18.235Z,17.60
2022-10-13T07:05:20.943Z,16.33
2022-10-13T07:07:23.660Z,15.70
2022-10-13T07:09:26.350Z,14.67
2022-10-13T07:11:29.065Z,17.93
2022-10-13T07:13:34.993Z,17.97
2022-10-13T07:15:41.923Z,19.10
2022-10-13T07:17:45.874Z,17.67
2022-10-13T07:19:49.272Z,15.50
2022-10-13T07:21:52.019Z,16.10
2022-10-13T07:23:56.180Z,17.80
2022-10-13T07:25:59.388Z,17.03
2022-10-13T07:28:02.078Z,16.77
2022-10-13T07:30:05.869Z,17.47
2022-10-13T07:32:09.917Z,19.17
2022-10-13T07:34:14.083Z,16.43
2022-10-13T07:36:17.124Z,15.63
2022-10-13T07:38:19.912Z,15.83
2022-10-13T07:40:24.047Z,16.40
2022-10-13T07:42:26.789Z,16.37
2022-10-13T07:44:29.629Z,16.40
2022-10-13T07:46:32.454Z,17.57
2022-10-13T07:48:37.074Z,14.77
2022-10-13T07:50:39.798Z,14.47
2022-10-13T07:52:42.497Z,16.67
2022-10-13T07:54:47.658Z,15.73
2022-10-13T07:56:52.426Z,14.57
2022-10-13T07:58:55.447Z,16.33
2022-10-13T08:00:59.486Z,24.83
2022-10-13T08:03:02.542Z,15.97
2022-10-13T08:05:07.284Z,14.43
2022-10-13T08:07:10.234Z,15.83
2022-10-13T08:09:13.011Z,14.27
2022-10-13T08:11:17.747Z,15.53
2022-10-13T08:13:20.606Z,11.97
2022-10-13T08:15:23.319Z,14.23
2022-10-13T08:17:26.061Z,14.67
2022-10-13T08:19:29.233Z,16.17
2022-10-13T08:23:55.990Z,13.27
2022-10-13T08:25:58.973Z,12.67
2022-10-13T08:28:01.700Z,11.90
2022-10-13T08:30:05.078Z,12.20
2022-10-13T08:32:08.515Z,13.63
2022-10-13T08:34:11.935Z,11.77
2022-10-13T08:36:15.205Z,14.43
2022-10-13T08:38:19.453Z,14.63
2022-10-13T08:40:23.769Z,11.43
2022-10-13T08:42:26.503Z,12.37
2022-10-13T08:47:10.227Z,13.57
2022-10-13T08:49:15.556Z,11.73
2022-10-13T08:51:18.617Z,15.60
2022-10-13T08:53:29.043Z,13.97
2022-10-13T08:55:36.481Z,13.77
2022-10-13T08:57:41.677Z,13.07
2022-10-13T08:59:44.509Z,13.23
2022-10-13T09:01:49.322Z,13.37
2022-10-13T09:03:54.613Z,12.97
2022-10-13T09:06:11.571Z,15.60
2022-10-13T09:08:20.254Z,12.77
2022-10-13T09:10:24.617Z,13.27
2022-10-13T09:12:28.057Z,16.43
2022-10-13T09:14:33.102Z,16.07
2022-10-13T09:16:38.444Z,14.60
2022-10-13T09:18:45.254Z,13.30
2022-10-13T09:20:50.924Z,15.30
2022-10-13T09:23:05.155Z,15.17
2022-10-13T09:25:11.520Z,13.60
2022-10-13T09:27:17.296Z,14.53
2022-10-13T09:29:22.204Z,15.13
2022-10-13T09:31:27.447Z,15.67
2022-10-13T09:33:30.300Z,15.43
2022-10-13T09:35:34.910Z,17.17
2022-10-13T09:37:37.786Z,15.53
2022-10-13T09:39:40.461Z,14.57
2022-10-13T09:41:44.825Z,15.37
2022-10-13T09:44:05.739Z,13.80
2022-10-13T09:46:14.833Z,13.70
2022-10-13T09:48:22.474Z,16.63
2022-10-13T09:50:28.094Z,15.63
2022-10-13T09:52:30.849Z,17.03
2022-10-13T09:54:46.558Z,15.40
2022-10-13T09:56:55.044Z,15.67
2022-10-13T09:59:07.689Z,15.83
2022-10-13T10:01:20.211Z,17.13
2022-10-13T10:03:25.602Z,18.17
2022-10-13T10:05:33.493Z,15.77
2022-10-13T10:07:36.172Z,14.03
2022-10-13T10:09:41.128Z,16.97
2022-10-13T10:11:48.994Z,14.43
2022-10-13T10:13:52.618Z,16.13
2022-10-13T10:16:03.005Z,15.03
2022-10-13T10:18:09.772Z,19.27
2022-10-13T10:20:33.476Z,16.87
2022-10-13T10:22:41.072Z,15.00
2022-10-13T10:24:51.532Z,16.80
2022-10-13T10:26:57.887Z,13.97
2022-10-13T10:29:17.074Z,13.67
2022-10-13T10:31:37.853Z,16.70
2022-10-13T10:33:54.998Z,15.13
2022-10-13T10:36:03.602Z,17.27
2022-10-13T10:38:21.478Z,17.33
2022-10-13T10:40:37.848Z,14.27
2022-10-13T10:43:04.189Z,18.20
2022-10-13T10:45:16.882Z,17.37
2022-10-13T10:47:26.423Z,17.27
2022-10-13T10:49:32.431Z,17.73
2022-10-13T10:51:38.981Z,15.53
2022-10-13T10:53:53.367Z,16.60
2022-10-13T10:56:03.013Z,16.13
2022-10-13T10:58:19.842Z,15.87
2022-10-13T11:00:23.929Z,18.30
2022-10-13T11:02:42.767Z,15.57
2022-10-13T11:04:46.662Z,15.20
2022-10-13T11:06:49.415Z,13.60
2022-10-13T11:08:52.156Z,15.27
2022-10-13T11:11:33.415Z,14.07
2022-10-13T11:13:52.772Z,14.87
2022-10-13T11:15:55.630Z,15.50
2022-10-13T11:17:59.917Z,15.70
2022-10-13T11:20:41.193Z,13.27
2022-10-13T11:23:34.303Z,17.90
2022-10-13T11:25:40.580Z,19.63
2022-10-13T11:27:45.142Z,16.50
2022-10-13T11:29:58.035Z,12.83
2022-10-13T11:32:00.793Z,13.60
2022-10-13T11:34:26.884Z,12.63
2022-10-13T11:36:48.737Z,15.17
2022-10-13T11:39:00.160Z,13.17
2022-10-13T11:41:16.704Z,13.50
2022-10-13T11:43:32.564Z,13.17
2022-10-13T11:46:00.944Z,14.67
2022-10-13T11:48:34.102Z,13.13
2022-10-13T11:50:44.199Z,13.93
2022-10-13T11:53:06.471Z,15.03
2022-10-13T11:55:16.243Z,11.63
2022-10-13T11:57:22.249Z,11.07
2022-10-13T11:59:27.501Z,11.83
2022-10-13T12:01:31.374Z,13.27
2022-10-13T12:03:36.709Z,11.50
2022-10-13T12:05:43.608Z,10.30
2022-10-13T12:07:48.628Z,10.77
2022-10-13T12:09:53.564Z,12.63
2022-10-13T12:12:01.446Z,12.87
2022-10-13T12:14:07.745Z,8.30
2022-10-13T12:16:14.540Z,15.20
2022-10-13T12:18:24.547Z,7.30
2022-10-13T12:20:29.321Z,8.57
2022-10-13T12:22:36.811Z,7.70
2022-10-13T12:24:42.910Z,7.80
2022-10-13T12:26:45.664Z,10.77
2022-10-13T12:28:51.871Z,15.80
2022-10-13T12:30:57.020Z,10.30
2022-10-13T12:33:01.113Z,15.00
2022-10-13T12:35:19.608Z,7.87
2022-10-13T12:37:30.927Z,10.70
2022-10-13T12:39:36.717Z,9.03
2022-10-13T12:41:43.728Z,8.23
2022-10-13T12:43:47.531Z,8.80
2022-10-13T12:45:50.432Z,8.57
2022-10-13T12:47:54.656Z,7.47
2022-10-13T12:50:22.406Z,8.37
2022-10-13T12:52:26.098Z,6.83
2022-10-13T12:54:32.339Z,6.47
2022-10-13T12:56:37.021Z,5.47
2022-10-13T12:58:44.477Z,9.00
2022-10-13T13:00:56.793Z,12.20
2022-10-13T13:03:01.685Z,8.10
2022-10-13T13:05:04.495Z,7.67
2022-10-13T13:07:27.724Z,12.43
2022-10-13T13:09:32.227Z,7.43
2022-10-13T13:11:38.173Z,8.37
2022-10-13T13:13:42.438Z,7.07
2022-10-13T13:15:45.423Z,7.80
2022-10-13T13:18:03.564Z,7.20
2022-10-13T13:20:20.311Z,7.77
2022-10-13T13:22:23.314Z,7.20
2022-10-13T13:24:36.075Z,7.53
2022-10-13T13:26:48.365Z,7.80
2022-10-13T13:28:53.041Z,8.20
2022-10-13T13:30:55.914Z,7.67
2022-10-13T13:32:58.706Z,9.63
2022-10-13T13:35:01.487Z,7.10
2022-10-13T13:37:04.262Z,7.33
2022-10-13T13:39:07.770Z,7.63
2022-10-13T13:41:11.884Z,11.43
2022-10-13T13:43:15.933Z,9.40
2022-10-13T13:45:20.976Z,6.30
2022-10-13T13:47:27.789Z,6.17
2022-10-13T13:49:30.618Z,6.13
2022-10-13T13:51:33.464Z,7.77
2022-10-13T13:53:36.220Z,11.60
2022-10-13T13:55:39.078Z,8.13
2022-10-13T13:57:43.721Z,7.97
2022-10-13T13:59:47.842Z,7.20
2022-10-13T14:01:50.539Z,10.03
2022-10-13T14:03:57.924Z,8.50
2022-10-13T14:06:00.937Z,6.10
2022-10-13T14:08:04.295Z,9.70
2022-10-13T14:10:09.020Z,7.87
2022-10-13T14:12:11.886Z,6.97
2022-10-13T14:14:14.628Z,11.13
2022-10-13T14:16:18.869Z,6.87
2022-10-13T14:18:21.603Z,7.20
2022-10-13T14:20:24.395Z,16.73
2022-10-13T14:22:27.457Z,13.27
2022-10-13T14:24:30.308Z,7.67
2022-10-13T14:26:33.734Z,9.50
2022-10-13T14:28:36.466Z,8.50
2022-10-13T14:30:40.706Z,8.73
2022-10-13T14:32:44.834Z,6.13
2022-10-13T14:34:47.626Z,5.73
2022-10-13T14:36:50.316Z,6.00
2022-10-13T14:38:54.934Z,8.83
2022-10-13T14:41:01.222Z,11.33
2022-10-13T14:43:04.016Z,9.17
2022-10-13T14:45:08.251Z,9.60
2022-10-13T14:47:10.983Z,6.17
2022-10-13T14:49:15.281Z,7.00
2022-10-13T14:51:18.728Z,7.47
2022-10-13T14:53:21.479Z,8.33
2022-10-13T14:55:24.203Z,5.90
2022-10-13T14:57:26.912Z,6.40
2022-10-13T14:59:29.939Z,9.33
2022-10-13T15:01:33.525Z,10.43
2022-10-13T15:03:36.329Z,10.10
2022-10-13T15:05:40.728Z,6.37
2022-10-13T15:07:43.429Z,6.80
2022-10-13T15:10:00.503Z,9.93
2022-10-13T15:12:07.239Z,7.37
2022-10-13T15:14:10.749Z,6.93
2022-10-13T15:16:17.330Z,11.67
2022-10-13T15:18:20.123Z,8.07
2022-10-13T15:20:23.081Z,9.63
2022-10-13T15:22:27.390Z,6.93
2022-10-13T15:24:30.205Z,8.10
2022-10-13T15:26:37.877Z,5.23
2022-10-13T15:28:42.649Z,8.43
2022-10-13T15:30:46.525Z,6.50
2022-10-13T15:32:51.178Z,5.03
2022-10-13T15:34:54.454Z,7.23
2022-10-13T15:36:57.183Z,6.03
2022-10-13T15:39:01.403Z,8.67
2022-10-13T15:41:06.326Z,6.80
2022-10-13T15:43:09.529Z,6.93
2022-10-13T15:45:12.273Z,7.67
2022-10-13T15:47:17.182Z,5.70
2022-10-13T15:49:20.316Z,6.73
2022-10-13T15:51:26.862Z,6.50
2022-10-13T15:53:30.733Z,13.43
2022-10-13T15:55:35.017Z,7.50
2022-10-13T15:57:38.131Z,7.30
2022-10-13T15:59:40.899Z,8.37
2022-10-13T16:01:43.639Z,9.83
2022-10-13T16:03:46.349Z,11.73
2022-10-13T16:05:49.053Z,11.63
2022-10-13T16:07:51.779Z,8.80
2022-10-13T16:09:54.529Z,8.57
2022-10-13T16:11:58.571Z,7.80
2022-10-13T16:14:01.336Z,7.20
2022-10-13T16:16:04.072Z,7.67
2022-10-13T16:18:07.033Z,7.23
2022-10-13T16:20:11.543Z,12.03
2022-10-13T16:22:14.352Z,7.90
2022-10-13T16:24:17.084Z,8.67
2022-10-13T16:26:22.261Z,6.23
2022-10-13T16:28:26.437Z,7.97
2022-10-13T16:30:30.384Z,11.20
2022-10-13T16:32:38.868Z,23.10
2022-10-13T16:34:41.598Z,13.47
2022-10-13T16:36:44.310Z,10.23
2022-10-13T16:38:48.182Z,8.60
2022-10-13T16:40:50.914Z,7.40
2022-10-13T16:42:53.638Z,7.93
2022-10-13T16:44:57.749Z,8.63
2022-10-13T16:47:04.812Z,6.33
2022-10-13T16:49:07.607Z,8.93
2022-10-13T16:51:13.427Z,11.50
2022-10-13T16:53:16.138Z,7.97
2022-10-13T16:55:18.796Z,8.57
2022-10-13T16:57:21.765Z,7.70
2022-10-13T16:59:25.230Z,7.23
2022-10-13T17:01:30.230Z,6.47
2022-10-13T17:03:33.272Z,21.63
2022-10-13T17:05:35.995Z,16.43
2022-10-13T17:07:39.068Z,8.43
2022-10-13T17:09:41.816Z,9.33
2022-10-13T17:11:44.652Z,6.33
2022-10-13T17:13:47.859Z,9.83
2022-10-13T17:15:51.690Z,10.97
2022-10-13T17:17:56.500Z,9.10
2022-10-13T17:19:59.235Z,11.70
2022-10-13T17:22:02.013Z,6.93
2022-10-13T17:24:05.065Z,13.17
2022-10-13T17:26:14.007Z,9.60
2022-10-13T17:28:17.190Z,6.60
2022-10-13T17:30:20.056Z,6.83
2022-10-13T17:32:23.208Z,6.43
2022-10-13T17:34:27.342Z,8.97
2022-10-13T17:36:32.222Z,6.90
2022-10-13T17:38:37.136Z,11.53
2022-10-13T17:40:39.841Z,8.47
2022-10-13T17:42:42.525Z,8.33
2022-10-13T17:44:45.231Z,6.97
2022-10-13T17:46:48.635Z,7.07
2022-10-13T17:48:51.638Z,7.87
2022-10-13T17:50:55.700Z,9.13
2022-10-13T17:52:58.442Z,8.23
2022-10-13T17:55:04.444Z,10.30
2022-10-13T17:57:07.151Z,16.77
2022-10-13T17:59:10.248Z,14.90
2022-10-13T18:01:14.970Z,18.83
2022-10-13T18:03:17.739Z,12.37
2022-10-13T18:05:20.475Z,13.37
2022-10-13T18:07:24.642Z,12.57
2022-10-13T18:09:27.418Z,16.63
2022-10-13T18:11:30.483Z,17.20
2022-10-13T18:13:33.565Z,11.20
2022-10-13T18:15:37.035Z,14.57
2022-10-13T18:17:39.766Z,12.27
2022-10-13T18:19:42.889Z,14.50
2022-10-13T18:21:45.634Z,16.10
2022-10-13T18:23:50.033Z,10.50
2022-10-13T18:25:52.801Z,15.13
2022-10-13T18:27:57.051Z,12.93
2022-10-13T18:30:00.131Z,8.27
2022-10-13T18:32:05.236Z,17.10
2022-10-13T18:34:10.194Z,12.03
2022-10-13T18:36:16.043Z,9.63
2022-10-13T18:38:20.029Z,7.90
2022-10-13T18:40:24.437Z,8.17
2022-10-13T18:42:27.646Z,10.23
2022-10-13T18:44:30.373Z,8.43
2022-10-13T18:46:33.898Z,11.40
2022-10-13T18:48:36.711Z,12.60
2022-10-13T18:50:40.184Z,7.63
2022-10-13T18:52:42.857Z,8.83
2022-10-13T18:54:46.297Z,6.90
2022-10-13T18:56:50.382Z,9.17
2022-10-13T18:58:59.140Z,10.20
2022-10-13T19:01:04.176Z,6.77
2022-10-13T19:03:07.050Z,8.83
2022-10-13T19:05:10.773Z,7.67
2022-10-13T19:07:13.539Z,8.53
2022-10-13T19:09:17.344Z,8.37
2022-10-13T19:11:21.881Z,6.37
2022-10-13T19:13:26.662Z,8.93
2022-10-13T19:15:29.469Z,9.57
2022-10-13T19:17:33.467Z,9.70
2022-10-13T19:19:36.211Z,10.67
2022-10-13T19:21:39.613Z,9.53
2022-10-13T19:23:45.033Z,9.47
2022-10-13T19:25:57.167Z,11.93
2022-10-13T19:27:59.985Z,10.80
2022-10-13T19:30:04.668Z,9.33
2022-10-13T19:32:07.866Z,9.50
2022-10-13T19:34:12.349Z,12.67
2022-10-13T19:36:22.457Z,12.90
2022-10-13T19:38:25.097Z,11.67
2022-10-13T19:40:27.734Z,13.47
2022-10-13T19:42:30.366Z,10.10
2022-10-13T19:44:33.533Z,11.57
2022-10-13T19:46:38.102Z,10.07
2022-10-13T19:48:40.892Z,10.67
2022-10-13T19:50:43.726Z,7.30
2022-10-13T19:52:49.122Z,8.10
2022-10-13T19:54:51.879Z,7.97
2022-10-13T19:56:55.062Z,6.97
2022-10-13T19:58:57.928Z,7.30
2022-10-13T20:01:03.469Z,9.43
2022-10-13T20:03:07.626Z,9.47
2022-10-13T20:05:11.807Z,6.57
2022-10-13T20:07:14.560Z,9.67
2022-10-13T20:09:18.501Z,11.73
2022-10-13T20:11:24.159Z,11.83
2022-10-13T20:13:27.367Z,8.23
2022-10-13T20:15:40.523Z,8.17
2022-10-13T20:17:43.410Z,8.00
2022-10-13T20:19:47.862Z,7.87
2022-10-13T20:21:51.702Z,7.23
2022-10-13T20:23:55.445Z,7.50
2022-10-13T20:26:02.065Z,8.33
2022-10-13T20:28:08.860Z,10.23
2022-10-13T20:30:12.625Z,9.13
2022-10-13T20:32:17.255Z,8.57
2022-10-13T20:34:20.003Z,7.87
2022-10-13T20:36:25.198Z,9.27
2022-10-13T20:38:29.673Z,7.80
2022-10-13T20:40:32.956Z,9.67
2022-10-13T20:42:35.710Z,7.50
2022-10-13T20:44:38.523Z,7.83
2022-10-13T20:46:41.237Z,6.93
2022-10-13T20:49:09.375Z,6.23
2022-10-13T20:51:11.413Z,8.17
2022-10-13T20:53:15.463Z,8.10
2022-10-13T20:55:19.202Z,8.50
2022-10-13T20:57:22.614Z,8.87
2022-10-13T20:59:26.367Z,7.80
2022-10-13T21:01:29.060Z,10.00
2022-10-13T21:03:32.042Z,8.73
2022-10-13T21:05:40.482Z,7.33
2022-10-13T21:07:43.180Z,11.47
2022-10-13T21:09:51.451Z,7.70
2022-10-13T21:11:56.253Z,6.50
2022-10-13T21:13:59.720Z,9.73
2022-10-13T21:16:07.450Z,9.93
2022-10-13T21:18:10.926Z,6.87
2022-10-13T21:20:15.832Z,8.37
2022-10-13T21:22:18.519Z,8.93
2022-10-13T21:24:21.288Z,8.97
2022-10-13T21:26:26.773Z,7.73
2022-10-13T21:28:29.753Z,6.47
2022-10-13T21:30:33.092Z,8.30
2022-10-13T21:32:35.813Z,9.60
2022-10-13T21:34:38.478Z,9.00
2022-10-13T21:36:44.330Z,7.38
2022-10-13T21:38:51.552Z,7.43
2022-10-13T21:40:54.632Z,8.52
2022-10-13T21:42:58.648Z,8.33
2022-10-13T21:45:01.515Z,7.90
2022-10-13T21:47:04.247Z,7.60
2022-10-13T21:49:07.136Z,7.00
2022-10-13T21:51:14.968Z,10.77
2022-10-13T21:53:17.804Z,9.02
2022-10-13T21:55:20.522Z,9.87
2022-10-13T21:57:24.040Z,9.90
2022-10-13T21:59:28.306Z,7.78
2022-10-13T22:01:31.325Z,7.63
2022-10-13T22:03:35.013Z,10.95
2022-10-13T22:05:38.180Z,7.82
2022-10-13T22:07:40.857Z,8.38
2022-10-13T22:09:43.553Z,7.68
2022-10-13T22:11:46.247Z,8.05
2022-10-13T22:13:48.999Z,9.57
2022-10-13T22:15:53.062Z,7.70
2022-10-13T22:17:56.317Z,9.98
2022-10-13T22:19:59.896Z,8.47
2022-10-13T22:22:03.088Z,13.83
2022-10-13T22:24:07.574Z,18.63
2022-10-13T22:26:10.891Z,14.47
2022-10-13T22:28:13.629Z,8.80
2022-10-13T22:30:18.164Z,8.50
2022-10-13T22:32:22.164Z,12.93
2022-10-13T22:34:25.431Z,10.05
2022-10-13T22:36:30.725Z,7.87
2022-10-13T22:38:33.431Z,10.25
2022-10-13T22:40:39.537Z,10.70
2022-10-13T22:42:42.241Z,10.57
2022-10-13T22:44:44.957Z,10.80
2022-10-13T22:46:47.617Z,10.60
2022-10-13T22:48:52.025Z,9.90
2022-10-13T22:50:54.879Z,8.47
2022-10-13T22:52:57.588Z,9.43
2022-10-13T22:55:00.363Z,9.50
2022-10-13T22:57:03.013Z,13.13
2022-10-13T22:59:07.966Z,10.90
2022-10-13T23:01:14.906Z,7.53
2022-10-13T23:03:18.098Z,9.97
2022-10-13T23:05:23.199Z,11.33
2022-10-13T23:07:25.917Z,14.17
2022-10-13T23:09:28.752Z,9.87
2022-10-13T23:11:31.497Z,10.37
2022-10-13T23:13:35.910Z,8.60
2022-10-13T23:15:40.157Z,10.93
2022-10-13T23:17:42.844Z,14.23
2022-10-13T23:19:45.547Z,14.60
2022-10-13T23:21:49.568Z,22.53
2022-10-13T23:23:57.179Z,15.27
2022-10-13T23:26:03.542Z,13.97
2022-10-13T23:28:06.392Z,15.13
2022-10-13T23:30:10.198Z,12.07
2022-10-13T23:32:12.928Z,13.20
2022-10-13T23:34:18.158Z,11.97
2022-10-13T23:36:22.549Z,9.73
2022-10-13T23:38:28.931Z,17.30
2022-10-13T23:40:31.649Z,11.10
2022-10-13T23:42:34.359Z,9.20
2022-10-13T23:44:37.083Z,10.53
2022-10-13T23:46:39.924Z,14.27
2022-10-13T23:48:46.117Z,14.37
2022-10-13T23:50:48.829Z,14.73
2022-10-13T23:52:51.524Z,11.30
2022-10-13T23:54:55.596Z,13.67
2022-10-13T23:56:59.826Z,14.90
2022-10-13T23:59:02.673Z,11.23
